Hannover, Germany

12:16 AM CEST on October 01, 2016 (GMT +0200)
Walsroder Straße | | Change Station

Elev 167 ft 52.46 °N, 9.74 °E | Updated 8 minutes ago

Clear
Clear
48.2 °F
Feels Like 48 °F
N
0.6
Wind Variable Wind from SE
Gusts 1.2 mph

Today
High -- | Low -- °F
--% Chance of Precip.
Yesterday
High -- | Low -- °F
Precip. -- in
Pressure 29.95 in
Visibility -9999.0 miles
Clouds
Windchill 48 °F
Dew Point 44 °F
Humidity 87%
Rainfall in
Snow Depth Not available.
7:22 AM 6:57 PM
Waning Crescent, 0% visible
METAR EDDV 302150Z 16004KT CAVOK 10/07 Q1014
Pressure 29.95 in
Visibility -9999.0 miles
Clouds
Windchill 48 °F
Dew Point 44 °F
Humidity 87%
Rainfall in
Snow Depth Not available.
7:22 AM 6:57 PM
Waning Crescent, 0% visible
METAR EDDV 302150Z 16004KT CAVOK 10/07 Q1014

10-Day Weather Forecast

×

Almanac

Astronomy

Oct. 01, 2016 Rise Set
Actual Time
Civil Twilight
Nautical Twilight
Astronomical Twilight
Moon
Length of Visible Light
Length of Day
Tomorrow will be .
, % of the Moon is Illuminated

Today's Extremes

Country Highs Country Lows

Community

WunderPhotos

Upload Photos

1,942,796 photos uploaded!

WunderBlog® & News

Nearby

Air Quality

  Air Quality AQ Index Pollutant
Not available.

Snow Depth

Station Depth Elevation

Earthquake Activity

City Distance Mag. Time & Date
Minimum magnitude displayed is 2.5.

Coastal Water Temperatures

Place Temperature

Stations

Nearby Weather Stations

Station Location Temp. Windchill Dew Point Humidity Wind Precip. Elev Updated Type